Time;durP1;ratioP1;P1;durP2;ratioP2;P2;SDS_P1;SDS_P2;PMS_P1;PMS_P2;Temp;Humidity;BMP_temperature;BMP_pressure;BME280_temperature;BME280_humidity;BME280_pressure;Samples;Min_cycle;Max_cycle;Signal;HPM_P1;HPM_P2
2021/08/05 00:01:39;;;;;;;;;;;15.60;1.00;;;;;;4973213;28;19910;-64
2021/08/05 00:04:04;;;;;;;;;;;15.60;1.00;;;;;;4973608;28;19917;-64
2021/08/05 00:06:30;;;;;;;;;;;15.60;1.00;;;;;;4973054;28;19933;-64
2021/08/05 00:08:56;;;;;;;;;;;15.60;1.00;;;;;;4973050;28;19921;-64
2021/08/05 00:11:21;;;;;;;;;;;15.60;1.00;;;;;;4972859;28;19910;-64
2021/08/05 00:13:47;;;;;;;;;;;15.60;1.00;;;;;;4973772;28;19914;-64
2021/08/05 00:16:12;;;;;;;;;;;15.60;1.00;;;;;;4973549;28;19910;-64
2021/08/05 00:18:38;;;;;;;;;;;15.60;1.00;;;;;;4972297;28;20013;-64
2021/08/05 00:21:03;;;;;;;;;;;15.60;1.00;;;;;;4973560;28;19957;-64
2021/08/05 00:23:29;;;;;;;;;;;15.50;1.00;;;;;;4973404;28;20255;-64
2021/08/05 00:25:54;;;;;;;;;;;15.50;1.00;;;;;;4973427;28;20374;-64
2021/08/05 00:28:20;;;;;;;;;;;15.50;1.00;;;;;;4972358;28;19910;-64
2021/08/05 00:30:45;;;;;;;;;;;15.40;1.00;;;;;;4973041;28;20279;-64
2021/08/05 00:33:11;;;;;;;;;;;15.40;1.00;;;;;;4972633;28;19929;-64
2021/08/05 00:35:36;;;;;;;;;;;15.30;1.00;;;;;;4973302;28;19993;-64
2021/08/05 00:38:02;;;;;;;;;;;15.30;1.00;;;;;;4972378;28;19910;-63
2021/08/05 00:40:27;;;;;;;;;;;15.20;1.00;;;;;;4973071;28;19914;-64
2021/08/05 00:42:53;;;;;;;;;;;15.20;1.00;;;;;;4972067;28;20153;-65
2021/08/05 00:45:19;;;;;;;;;;;15.20;1.00;;;;;;4972685;28;19989;-65
2021/08/05 00:47:44;;;;;;;;;;;15.20;1.00;;;;;;4971398;28;19915;-65
2021/08/05 00:50:10;;;;;;;;;;;15.10;1.00;;;;;;4972867;28;20016;-65
2021/08/05 00:52:36;;;;;;;;;;;15.10;1.00;;;;;;4972661;28;19944;-63
2021/08/05 00:55:02;;;;;;;;;;;15.10;1.00;;;;;;4972371;28;19910;-65
2021/08/05 00:57:27;;;;;;;;;;;15.10;1.00;;;;;;4971662;28;19914;-65
2021/08/05 00:59:53;;;;;;;;;;;15.10;1.00;;;;;;4972753;28;19921;-64
2021/08/05 01:02:22;;;;;;;;;;;15.10;1.00;;;;;;4955019;28;19980;-65
2021/08/05 01:04:51;;;;;;;;;;;15.00;1.00;;;;;;4972494;28;20005;-65
2021/08/05 01:07:20;;;;;;;;;;;15.00;1.00;;;;;;4972044;28;20355;-65
2021/08/05 01:09:55;;;;;;;;;;;15.00;1.00;;;;;;4972572;28;19926;-65
2021/08/05 01:12:27;;;;;;;;;;;15.00;1.00;;;;;;4972088;28;19918;-65
2021/08/05 01:14:59;;;;;;;;;;;15.00;1.00;;;;;;4972393;28;19914;-65
2021/08/05 01:17:25;;;;;;;;;;;15.00;1.00;;;;;;4971656;28;19953;-64
2021/08/05 01:19:53;;;;;;;;;;;15.00;1.00;;;;;;4972613;28;20396;-65
2021/08/05 01:22:24;;;;;;;;;;;15.00;1.00;;;;;;4972373;28;19997;-64
2021/08/05 01:24:54;;;;;;;;;;;15.00;1.00;;;;;;4972557;28;19910;-65
2021/08/05 01:27:21;;;;;;;;;;;15.00;1.00;;;;;;4970951;28;19965;-64
2021/08/05 01:29:46;;;;;;;;;;;14.90;1.00;;;;;;4972457;28;19915;-64
2021/08/05 01:32:12;;;;;;;;;;;14.90;1.00;;;;;;4971865;28;19925;-64
2021/08/05 01:34:38;;;;;;;;;;;14.90;1.00;;;;;;4972352;28;19910;-64
2021/08/05 01:37:05;;;;;;;;;;;14.80;1.00;;;;;;4972007;28;19917;-64
2021/08/05 01:39:31;;;;;;;;;;;14.80;1.00;;;;;;4971539;28;19915;-64
2021/08/05 01:41:57;;;;;;;;;;;14.80;1.00;;;;;;4971546;28;20301;-63
2021/08/05 01:44:22;;;;;;;;;;;14.80;1.00;;;;;;4972300;28;19921;-63
2021/08/05 01:46:49;;;;;;;;;;;14.80;1.00;;;;;;4972526;28;19910;-63
2021/08/05 01:49:15;;;;;;;;;;;14.90;1.00;;;;;;4971597;28;20283;-63
2021/08/05 01:51:40;;;;;;;;;;;14.90;1.00;;;;;;4971962;28;19945;-63
2021/08/05 01:54:06;;;;;;;;;;;14.90;1.00;;;;;;4972522;28;19960;-63
2021/08/05 01:56:32;;;;;;;;;;;14.90;1.00;;;;;;4972350;28;20371;-64
2021/08/05 01:58:57;;;;;;;;;;;14.90;1.00;;;;;;4975579;28;19915;-64
2021/08/05 02:01:23;;;;;;;;;;;14.90;1.00;;;;;;4975583;28;20346;-65
2021/08/05 02:04:02;;;;;;;;;;;14.90;1.00;;;;;;4975850;28;19910;-64
2021/08/05 02:06:28;;;;;;;;;;;14.90;1.00;;;;;;4976252;28;19911;-64
2021/08/05 02:08:56;;;;;;;;;;;14.90;1.00;;;;;;4975213;28;19921;-65
2021/08/05 02:11:33;;;;;;;;;;;14.90;1.00;;;;;;4974830;28;19910;-65
2021/08/05 02:13:59;;;;;;;;;;;14.80;1.00;;;;;;4975828;28;19961;-65
2021/08/05 02:16:26;;;;;;;;;;;14.90;1.00;;;;;;4975495;28;19910;-65
2021/08/05 02:18:51;;;;;;;;;;;14.90;1.00;;;;;;4975343;28;19918;-65
2021/08/05 02:21:20;;;;;;;;;;;14.90;1.00;;;;;;4975516;28;20316;-65
2021/08/05 02:23:46;;;;;;;;;;;14.90;1.00;;;;;;4975231;28;19964;-64
2021/08/05 02:26:11;;;;;;;;;;;14.90;1.00;;;;;;4975668;28;20367;-64
2021/08/05 02:28:37;;;;;;;;;;;14.90;1.00;;;;;;4974391;28;19911;-65
2021/08/05 02:31:03;;;;;;;;;;;14.80;1.00;;;;;;4975188;28;19918;-64
2021/08/05 02:33:29;;;;;;;;;;;14.80;1.00;;;;;;4974644;28;19925;-64
2021/08/05 02:35:55;;;;;;;;;;;14.80;1.00;;;;;;4975218;28;19997;-64
2021/08/05 02:38:21;;;;;;;;;;;14.80;1.00;;;;;;4974426;28;20037;-64
2021/08/05 02:40:48;;;;;;;;;;;14.80;1.00;;;;;;4974663;28;19917;-64
2021/08/05 02:43:14;;;;;;;;;;;14.80;1.00;;;;;;4974512;28;19918;-65
2021/08/05 02:45:41;;;;;;;;;;;14.80;1.00;;;;;;4975098;28;20359;-64
2021/08/05 02:48:07;;;;;;;;;;;14.80;1.00;;;;;;4974637;28;19933;-65
2021/08/05 02:50:33;;;;;;;;;;;14.80;1.00;;;;;;4975004;28;19953;-64
2021/08/05 02:53:00;;;;;;;;;;;14.80;1.00;;;;;;4974867;28;20334;-65
2021/08/05 02:55:26;;;;;;;;;;;14.80;1.00;;;;;;4975292;28;19945;-65
2021/08/05 02:57:52;;;;;;;;;;;14.70;1.00;;;;;;4973465;28;19953;-65
2021/08/05 03:00:18;;;;;;;;;;;14.70;1.00;;;;;;4975206;28;19996;-65
2021/08/05 03:02:43;;;;;;;;;;;14.70;1.00;;;;;;4974527;28;20400;-65
2021/08/05 03:05:09;;;;;;;;;;;14.60;1.00;;;;;;4974903;28;19917;-65
2021/08/05 03:07:35;;;;;;;;;;;14.60;1.00;;;;;;4973858;28;19918;-65
2021/08/05 03:10:00;;;;;;;;;;;14.60;1.00;;;;;;4973726;28;20067;-65
2021/08/05 03:12:26;;;;;;;;;;;14.60;1.00;;;;;;4974258;28;19918;-65
2021/08/05 03:14:51;;;;;;;;;;;14.70;1.00;;;;;;4974741;28;20417;-64
2021/08/05 03:17:17;;;;;;;;;;;14.70;1.00;;;;;;4974063;28;19949;-64
2021/08/05 03:19:42;;;;;;;;;;;14.70;1.00;;;;;;4974676;28;19914;-65
2021/08/05 03:22:08;;;;;;;;;;;14.80;1.00;;;;;;4974288;28;19964;-64
2021/08/05 03:24:33;;;;;;;;;;;14.70;1.00;;;;;;4974238;28;19914;-65
2021/08/05 03:26:59;;;;;;;;;;;14.80;1.00;;;;;;4973857;28;19961;-65
2021/08/05 03:29:25;;;;;;;;;;;14.70;1.00;;;;;;4973834;28;19917;-65
2021/08/05 03:31:51;;;;;;;;;;;14.70;1.00;;;;;;4974048;28;19915;-65
2021/08/05 03:34:16;;;;;;;;;;;14.70;1.00;;;;;;4973999;28;19911;-64
2021/08/05 03:36:42;;;;;;;;;;;14.70;1.00;;;;;;4973990;28;19910;-64
2021/08/05 03:39:07;;;;;;;;;;;14.80;1.00;;;;;;4973531;28;19910;-65
2021/08/05 03:41:33;;;;;;;;;;;14.70;1.00;;;;;;4973385;28;19914;-65
2021/08/05 03:43:58;;;;;;;;;;;14.80;1.00;;;;;;4973407;28;19916;-65
2021/08/05 03:46:24;;;;;;;;;;;14.80;1.00;;;;;;4973901;28;20398;-65
2021/08/05 03:48:49;;;;;;;;;;;14.70;1.00;;;;;;4973531;28;19913;-64
2021/08/05 03:51:15;;;;;;;;;;;14.80;1.00;;;;;;4973945;28;19910;-65
2021/08/05 03:53:40;;;;;;;;;;;14.80;1.00;;;;;;4973769;28;20355;-64
2021/08/05 03:56:06;;;;;;;;;;;14.80;1.00;;;;;;4973601;28;19929;-65
2021/08/05 03:58:31;;;;;;;;;;;14.90;1.00;;;;;;4972724;28;19910;-65
2021/08/05 04:00:57;;;;;;;;;;;14.90;1.00;;;;;;4973776;28;19922;-65
2021/08/05 04:03:22;;;;;;;;;;;14.90;1.00;;;;;;4973597;28;19929;-64
2021/08/05 04:05:48;;;;;;;;;;;14.90;1.00;;;;;;4973531;28;19964;-64
2021/08/05 04:08:13;;;;;;;;;;;14.90;1.00;;;;;;4972323;28;19910;-64
2021/08/05 04:10:39;;;;;;;;;;;14.90;1.00;;;;;;4973621;28;19921;-64
2021/08/05 04:13:04;;;;;;;;;;;15.00;1.00;;;;;;4972897;28;19914;-65
2021/08/05 04:15:30;;;;;;;;;;;15.00;1.00;;;;;;4973412;28;20009;-65
2021/08/05 04:17:55;;;;;;;;;;;14.90;1.00;;;;;;4973131;28;19933;-63
2021/08/05 04:20:21;;;;;;;;;;;14.90;1.00;;;;;;4972595;28;20268;-64
2021/08/05 04:22:48;;;;;;;;;;;14.90;1.00;;;;;;4972588;28;19925;-65
2021/08/05 04:25:13;;;;;;;;;;;14.90;1.00;;;;;;4973311;28;20379;-65
2021/08/05 04:27:39;;;;;;;;;;;14.90;1.00;;;;;;4972476;28;19926;-65
2021/08/05 04:30:06;;;;;;;;;;;14.90;1.00;;;;;;4973186;28;19910;-65
2021/08/05 04:32:31;;;;;;;;;;;14.90;1.00;;;;;;4972934;28;20454;-64
2021/08/05 04:34:57;;;;;;;;;;;14.90;1.00;;;;;;4972810;28;19914;-64
2021/08/05 04:37:22;;;;;;;;;;;14.90;1.00;;;;;;4972326;28;19918;-64
2021/08/05 04:39:48;;;;;;;;;;;14.90;1.00;;;;;;4972714;28;19950;-64
2021/08/05 04:42:13;;;;;;;;;;;14.90;1.00;;;;;;4972082;28;20100;-64
2021/08/05 04:44:39;;;;;;;;;;;14.90;1.00;;;;;;4972454;28;19968;-64
2021/08/05 04:47:05;;;;;;;;;;;14.90;1.00;;;;;;4972521;28;19934;-64
2021/08/05 04:49:30;;;;;;;;;;;14.90;1.00;;;;;;4972022;28;19933;-64
2021/08/05 04:51:55;;;;;;;;;;;14.90;1.00;;;;;;4972696;28;20279;-64
2021/08/05 04:54:21;;;;;;;;;;;15.00;1.00;;;;;;4972540;28;19964;-64
2021/08/05 04:56:46;;;;;;;;;;;15.00;1.00;;;;;;4971925;28;19922;-64
2021/08/05 04:59:12;;;;;;;;;;;15.10;1.00;;;;;;4972073;28;19914;-64
2021/08/05 05:01:37;;;;;;;;;;;15.20;1.00;;;;;;4972296;28;19949;-64
2021/08/05 05:04:03;;;;;;;;;;;15.20;1.00;;;;;;4972279;28;19914;-64
2021/08/05 05:06:29;;;;;;;;;;;15.30;1.00;;;;;;4972332;28;19932;-64
2021/08/05 05:08:55;;;;;;;;;;;15.30;1.00;;;;;;4971243;28;19914;-63
2021/08/05 05:11:20;;;;;;;;;;;15.40;1.00;;;;;;4972012;28;19921;-64
2021/08/05 05:13:46;;;;;;;;;;;15.40;1.00;;;;;;4972275;28;19914;-63
2021/08/05 05:16:11;;;;;;;;;;;15.50;1.00;;;;;;4972233;28;20245;-64
2021/08/05 05:18:37;;;;;;;;;;;15.60;1.00;;;;;;4971289;28;20130;-63
2021/08/05 05:21:02;;;;;;;;;;;15.70;1.00;;;;;;4971774;28;19936;-63
2021/08/05 05:23:28;;;;;;;;;;;15.80;1.00;;;;;;4972190;28;19910;-63
2021/08/05 05:25:53;;;;;;;;;;;15.90;1.00;;;;;;4971958;28;19962;-63
2021/08/05 05:28:19;;;;;;;;;;;16.10;1.00;;;;;;4970883;28;19914;-64
2021/08/05 05:30:44;;;;;;;;;;;16.30;1.00;;;;;;4971813;28;19957;-64
2021/08/05 05:33:10;;;;;;;;;;;16.40;1.00;;;;;;4971012;28;19918;-64
2021/08/05 05:35:36;;;;;;;;;;;16.60;1.00;;;;;;4972139;28;19914;-64
2021/08/05 05:38:02;;;;;;;;;;;16.70;1.00;;;;;;4971265;28;19949;-64
2021/08/05 05:40:28;;;;;;;;;;;16.70;1.00;;;;;;4972110;28;20291;-63
2021/08/05 05:42:53;;;;;;;;;;;16.60;1.00;;;;;;4971065;28;19911;-64
2021/08/05 05:45:20;;;;;;;;;;;16.60;1.00;;;;;;4971711;28;19961;-64
2021/08/05 05:47:46;;;;;;;;;;;16.50;1.00;;;;;;4971187;28;19910;-64
2021/08/05 05:50:12;;;;;;;;;;;16.40;1.00;;;;;;4971791;28;19936;-64
2021/08/05 05:52:38;;;;;;;;;;;16.30;1.00;;;;;;4971634;28;19914;-63
2021/08/05 05:55:04;;;;;;;;;;;16.40;1.00;;;;;;4971489;28;20303;-64
2021/08/05 05:57:30;;;;;;;;;;;16.40;1.00;;;;;;4970391;28;19914;-62
2021/08/05 05:59:55;;;;;;;;;;;16.50;1.00;;;;;;4971468;28;19957;-63
2021/08/05 06:02:21;;;;;;;;;;;16.60;1.00;;;;;;4971260;28;20383;-62
2021/08/05 06:04:46;;;;;;;;;;;16.70;1.00;;;;;;4971354;28;19997;-62
2021/08/05 06:07:12;;;;;;;;;;;16.80;1.00;;;;;;4971012;28;19914;-64
2021/08/05 06:09:37;;;;;;;;;;;16.90;1.00;;;;;;4971035;28;19910;-64
2021/08/05 06:12:03;;;;;;;;;;;17.10;1.00;;;;;;4970872;28;19914;-64
2021/08/05 06:14:28;;;;;;;;;;;17.20;1.00;;;;;;4971460;28;19965;-64
2021/08/05 06:16:54;;;;;;;;;;;17.30;1.00;;;;;;4971397;28;19917;-64
2021/08/05 06:19:19;;;;;;;;;;;17.50;1.00;;;;;;4970558;28;19910;-61
2021/08/05 06:21:45;;;;;;;;;;;17.70;1.00;;;;;;4971841;28;19910;-62
2021/08/05 06:24:12;;;;;;;;;;;17.70;1.00;;;;;;4972256;28;20376;-64
2021/08/05 06:26:39;;;;;;;;;;;17.90;1.00;;;;;;4971552;28;20371;-64
2021/08/05 06:29:04;;;;;;;;;;;18.10;1.00;;;;;;4970971;28;19918;-64
2021/08/05 06:31:30;;;;;;;;;;;18.40;1.00;;;;;;4970805;28;19910;-65
2021/08/05 06:33:55;;;;;;;;;;;18.60;99.90;;;;;;4971512;28;20279;-64
2021/08/05 06:36:21;;;;;;;;;;;18.80;99.90;;;;;;4971538;28;19914;-63
2021/08/05 06:38:47;;;;;;;;;;;19.00;16.10;;;;;;4970785;28;20333;-64
2021/08/05 06:41:12;;;;;;;;;;;19.10;1.00;;;;;;4971194;28;19914;-64
2021/08/05 06:43:38;;;;;;;;;;;19.20;1.00;;;;;;4970855;28;20387;-63
2021/08/05 06:46:03;;;;;;;;;;;19.30;12.60;;;;;;4974391;28;20026;-63
2021/08/05 06:48:29;;;;;;;;;;;19.40;1.00;;;;;;4974120;28;19910;-62
2021/08/05 06:50:54;;;;;;;;;;;19.40;99.90;;;;;;4974845;28;20326;-64
2021/08/05 06:53:20;;;;;;;;;;;19.60;58.50;;;;;;4974082;28;19921;-64
2021/08/05 06:55:46;;;;;;;;;;;19.80;1.00;;;;;;4974710;28;19937;-64
2021/08/05 06:58:11;;;;;;;;;;;20.10;1.00;;;;;;4973307;28;19917;-64
2021/08/05 07:00:37;;;;;;;;;;;20.50;99.90;;;;;;4975125;28;19910;-64
2021/08/05 07:03:02;;;;;;;;;;;21.10;99.90;;;;;;4974238;28;19914;-64
2021/08/05 07:05:28;;;;;;;;;;;21.60;1.00;;;;;;4974311;28;19910;-64
2021/08/05 07:07:55;;;;;;;;;;;21.90;99.90;;;;;;4973667;28;19915;-64
2021/08/05 07:10:25;;;;;;;;;;;21.80;99.90;;;;;;4974072;28;20295;-65
2021/08/05 07:12:50;;;;;;;;;;;21.60;99.90;;;;;;4973644;28;19930;-65
2021/08/05 07:15:16;;;;;;;;;;;21.30;99.90;;;;;;4975406;28;19910;-64
2021/08/05 07:17:44;;;;;;;;;;;21.70;99.90;;;;;;4976894;28;20278;-65
2021/08/05 07:20:10;;;;;;;;;;;22.30;99.90;;;;;;4977257;28;19910;-65
2021/08/05 07:22:36;;;;;;;;;;;22.80;1.00;;;;;;4976602;28;20418;-64
2021/08/05 07:25:01;;;;;;;;;;;23.10;1.00;;;;;;4975747;28;19910;-63
2021/08/05 07:27:27;;;;;;;;;;;23.20;1.00;;;;;;4973338;28;19914;-65
2021/08/05 07:29:52;;;;;;;;;;;23.30;1.00;;;;;;4973891;28;20387;-65
2021/08/05 07:32:18;;;;;;;;;;;23.60;1.00;;;;;;4974159;28;19918;-65
2021/08/05 07:34:43;;;;;;;;;;;24.60;1.00;;;;;;4974433;28;20609;-65
2021/08/05 07:37:09;;;;;;;;;;;25.60;1.00;;;;;;4974943;28;19910;-64
2021/08/05 07:39:34;;;;;;;;;;;26.30;99.90;;;;;;4974811;28;19910;-64
2021/08/05 07:41:59;;;;;;;;;;;26.30;99.90;;;;;;4974897;28;20374;-65
2021/08/05 07:44:25;;;;;;;;;;;26.00;99.90;;;;;;4975251;28;19954;-65
2021/08/05 07:46:50;;;;;;;;;;;26.00;99.90;;;;;;4976068;28;19910;-65
2021/08/05 07:49:16;;;;;;;;;;;27.20;99.90;;;;;;4975299;28;19917;-65
2021/08/05 07:51:41;;;;;;;;;;;29.00;99.90;;;;;;4975175;28;20417;-64
2021/08/05 07:54:07;;;;;;;;;;;30.00;99.90;;;;;;4975243;28;19921;-64
2021/08/05 07:56:33;;;;;;;;;;;30.40;99.90;;;;;;4974310;28;19914;-64
2021/08/05 07:58:58;;;;;;;;;;;31.10;99.90;;;;;;4973822;28;19917;-65
2021/08/05 08:01:24;;;;;;;;;;;31.80;99.90;;;;;;4974427;28;20359;-65
2021/08/05 08:03:49;;;;;;;;;;;32.50;99.90;;;;;;4975374;28;19910;-64
2021/08/05 08:06:15;;;;;;;;;;;32.30;99.90;;;;;;4975741;28;20012;-65
2021/08/05 08:08:40;;;;;;;;;;;31.30;99.90;;;;;;4974680;28;19929;-65
2021/08/05 08:11:06;;;;;;;;;;;30.00;99.90;;;;;;4975984;28;19997;-65
2021/08/05 08:13:31;;;;;;;;;;;28.60;99.90;;;;;;4974629;28;20036;-65
2021/08/05 08:15:57;;;;;;;;;;;27.50;99.90;;;;;;4974479;28;20013;-64
2021/08/05 08:18:23;;;;;;;;;;;26.60;99.90;;;;;;4974495;28;19925;-64
2021/08/05 08:20:49;;;;;;;;;;;25.80;99.90;;;;;;4975038;28;19910;-65
2021/08/05 08:23:14;;;;;;;;;;;25.00;99.90;;;;;;4974180;28;19910;-65
2021/08/05 08:25:40;;;;;;;;;;;24.70;99.90;;;;;;4976146;28;20337;-64
2021/08/05 08:28:07;;;;;;;;;;;24.50;99.90;;;;;;4974038;28;20283;-64
2021/08/05 08:30:33;;;;;;;;;;;24.40;99.90;;;;;;4975293;28;20295;-64
2021/08/05 08:32:58;;;;;;;;;;;24.40;99.90;;;;;;4975434;28;19918;-65
2021/08/05 08:35:24;;;;;;;;;;;24.50;99.90;;;;;;4975342;28;20402;-65
2021/08/05 08:37:50;;;;;;;;;;;25.30;99.90;;;;;;4974728;28;19917;-65
2021/08/05 08:40:16;;;;;;;;;;;27.80;99.90;;;;;;4974607;28;19929;-65
2021/08/05 08:42:42;;;;;;;;;;;31.10;99.90;;;;;;4974895;28;19921;-64
2021/08/05 08:45:09;;;;;;;;;;;33.80;99.90;;;;;;4956212;28;19953;-64
2021/08/05 08:47:35;;;;;;;;;;;34.10;99.90;;;;;;4956358;28;20007;-64
2021/08/05 08:50:01;;;;;;;;;;;35.00;99.90;;;;;;4974840;28;19911;-65
2021/08/05 08:52:27;;;;;;;;;;;34.30;99.90;;;;;;4974389;28;19997;-65
2021/08/05 08:54:54;;;;;;;;;;;32.70;99.90;;;;;;4975374;28;19985;-65
2021/08/05 08:57:21;;;;;;;;;;;32.70;99.90;;;;;;4974138;28;20000;-64
2021/08/05 08:59:47;;;;;;;;;;;32.00;99.90;;;;;;4976952;28;20379;-64
2021/08/05 09:02:14;;;;;;;;;;;30.60;99.90;;;;;;4975709;28;19956;-65
2021/08/05 09:04:39;;;;;;;;;;;29.80;99.90;;;;;;4973989;28;19917;-65
2021/08/05 09:07:05;;;;;;;;;;;28.80;99.90;;;;;;4974046;28;19910;-65
2021/08/05 09:09:31;;;;;;;;;;;27.10;99.90;;;;;;4975218;28;20001;-64
2021/08/05 09:11:57;;;;;;;;;;;25.20;99.90;;;;;;4975998;28;19910;-64
2021/08/05 09:14:41;;;;;;;;;;;24.00;99.90;;;;;;4975285;28;19968;-65
2021/08/05 09:17:16;;;;;;;;;;;23.90;99.90;;;;;;4957310;28;19968;-64
2021/08/05 09:19:41;;;;;;;;;;;24.00;99.90;;;;;;4974133;28;19925;-64
2021/08/05 09:22:07;;;;;;;;;;;24.40;99.90;;;;;;4973526;28;19914;-65
2021/08/05 09:24:32;;;;;;;;;;;25.40;99.90;;;;;;4975757;28;19921;-64
2021/08/05 09:26:59;;;;;;;;;;;26.60;99.90;;;;;;4974827;28;19914;-64
2021/08/05 09:29:25;;;;;;;;;;;27.70;99.90;;;;;;4975441;28;19917;-64
2021/08/05 09:31:50;;;;;;;;;;;28.00;99.90;;;;;;4975414;28;19918;-65
2021/08/05 09:34:20;;;;;;;;;;;27.30;99.90;;;;;;4975223;28;19914;-64
2021/08/05 09:36:47;;;;;;;;;;;26.90;99.90;;;;;;4974867;28;20352;-64
2021/08/05 09:39:16;;;;;;;;;;;26.10;99.90;;;;;;4974039;28;20443;-64
2021/08/05 09:41:54;;;;;;;;;;;25.80;99.90;;;;;;4973937;28;19924;-64
2021/08/05 09:44:19;;;;;;;;;;;25.50;99.90;;;;;;4975245;28;19910;-64
2021/08/05 09:46:45;;;;;;;;;;;25.50;99.90;;;;;;4975625;28;19965;-64
2021/08/05 09:49:18;;;;;;;;;;;25.80;99.90;;;;;;4974469;28;19950;-64
2021/08/05 09:51:43;;;;;;;;;;;26.00;99.90;;;;;;4974808;28;19925;-64
2021/08/05 09:54:09;;;;;;;;;;;25.70;99.90;;;;;;4974539;28;20182;-65
2021/08/05 09:56:37;;;;;;;;;;;26.80;99.90;;;;;;4973621;28;19960;-65
2021/08/05 09:59:07;;;;;;;;;;;28.30;99.90;;;;;;4973574;28;19914;-63
2021/08/05 10:01:32;;;;;;;;;;;29.90;99.90;;;;;;4972946;28;20021;-63
2021/08/05 10:03:58;;;;;;;;;;;31.80;99.90;;;;;;4973597;28;19980;-63
2021/08/05 10:06:23;;;;;;;;;;;33.60;99.90;;;;;;4973471;28;19918;-62
2021/08/05 10:08:49;;;;;;;;;;;33.70;99.90;;;;;;4972142;28;19961;-63
2021/08/05 10:11:16;;;;;;;;;;;34.80;99.90;;;;;;4972808;28;19918;-63
2021/08/05 10:13:42;;;;;;;;;;;34.30;99.90;;;;;;4972106;28;20021;-63
2021/08/05 10:16:09;;;;;;;;;;;34.00;99.90;;;;;;4972665;28;20315;-64
2021/08/05 10:18:36;;;;;;;;;;;34.00;99.90;;;;;;4973633;28;19965;-63
2021/08/05 10:21:04;;;;;;;;;;;33.60;99.90;;;;;;4958675;28;20012;-64
2021/08/05 10:23:29;;;;;;;;;;;33.50;99.90;;;;;;4976070;28;19981;-64
2021/08/05 10:25:59;;;;;;;;;;;33.80;99.90;;;;;;4977815;28;19911;-64
2021/08/05 10:28:25;;;;;;;;;;;33.40;99.90;;;;;;4977550;28;19910;-65
2021/08/05 10:30:52;;;;;;;;;;;33.80;99.90;;;;;;4977894;28;19918;-64
2021/08/05 10:33:18;;;;;;;;;;;33.80;99.90;;;;;;4998531;23;19998;-66
2021/08/05 10:35:47;;;;;;;;;;;33.30;99.90;;;;;;4975169;28;20382;-66
2021/08/05 10:38:13;;;;;;;;;;;32.70;99.90;;;;;;4974638;28;19917;-66
2021/08/05 10:40:39;;;;;;;;;;;31.90;99.90;;;;;;4975258;28;19952;-66
2021/08/05 10:43:05;;;;;;;;;;;31.40;99.90;;;;;;4974263;28;19950;-66
2021/08/05 10:45:32;;;;;;;;;;;30.90;99.90;;;;;;4974964;28;19954;-66
2021/08/05 10:47:57;;;;;;;;;;;30.20;99.90;;;;;;4974153;28;19969;-66
2021/08/05 10:50:23;;;;;;;;;;;29.90;99.90;;;;;;4974935;28;19934;-67
2021/08/05 10:52:54;;;;;;;;;;;30.10;99.90;;;;;;4974778;28;20365;-67
2021/08/05 10:55:26;;;;;;;;;;;29.90;99.90;;;;;;4974692;28;19985;-66
2021/08/05 10:58:10;;;;;;;;;;;30.00;99.90;;;;;;4973528;28;19910;-66
2021/08/05 11:00:51;;;;;;;;;;;30.50;99.90;;;;;;4974592;28;20398;-66
2021/08/05 11:03:31;;;;;;;;;;;30.60;99.90;;;;;;4974239;28;19925;-66
2021/08/05 11:05:57;;;;;;;;;;;30.00;99.90;;;;;;4974611;28;19914;-66
2021/08/05 11:08:24;;;;;;;;;;;29.70;99.90;;;;;;4973791;28;19914;-66
2021/08/05 11:10:49;;;;;;;;;;;29.40;99.90;;;;;;4974366;28;19910;-66
2021/08/05 11:13:15;;;;;;;;;;;29.50;99.90;;;;;;4973694;28;19925;-67
2021/08/05 11:15:41;;;;;;;;;;;29.80;99.90;;;;;;4974254;28;19910;-66
2021/08/05 11:18:24;;;;;;;;;;;30.00;99.90;;;;;;4973429;28;20356;-66
2021/08/05 11:20:50;;;;;;;;;;;29.90;99.90;;;;;;4973868;28;20503;-66
2021/08/05 11:23:32;;;;;;;;;;;30.20;99.90;;;;;;4973509;28;19989;-67
2021/08/05 11:25:58;;;;;;;;;;;31.20;99.90;;;;;;4974221;28;19991;-66
2021/08/05 11:28:25;;;;;;;;;;;32.30;99.90;;;;;;4972852;28;20008;-67
2021/08/05 11:30:50;;;;;;;;;;;33.20;99.90;;;;;;4973295;28;20394;-66
2021/08/05 11:33:34;;;;;;;;;;;33.70;99.90;;;;;;4973433;28;19972;-67
2021/08/05 11:38:56;;;;;;;;;;;34.50;99.90;;;;;;4973464;28;19914;-66
2021/08/05 11:41:41;;;;;;;;;;;35.00;99.90;;;;;;4973368;28;19910;-67
2021/08/05 11:44:20;;;;;;;;;;;35.40;99.90;;;;;;4973752;28;19957;-67
2021/08/05 11:46:49;;;;;;;;;;;35.30;99.90;;;;;;4973386;28;19973;-66
2021/08/05 11:49:34;;;;;;;;;;;35.80;99.90;;;;;;4973499;28;20371;-67
2021/08/05 11:52:06;;;;;;;;;;;35.90;99.90;;;;;;4973807;28;19910;-66
2021/08/05 11:54:32;;;;;;;;;;;34.50;99.90;;;;;;4973554;28;19921;-66
2021/08/05 11:56:58;;;;;;;;;;;34.30;99.90;;;;;;4973283;28;19915;-67
2021/08/05 11:59:42;;;;;;;;;;;33.60;99.90;;;;;;4973299;28;19960;-67
2021/08/05 12:02:09;;;;;;;;;;;32.80;99.90;;;;;;4973208;28;19925;-66
2021/08/05 12:04:35;;;;;;;;;;;32.00;99.90;;;;;;4973598;28;19937;-67
2021/08/05 12:07:20;;;;;;;;;;;31.50;99.90;;;;;;4973212;28;19910;-66
2021/08/05 12:09:53;;;;;;;;;;;31.10;99.90;;;;;;4972782;28;19940;-66
2021/08/05 12:12:18;;;;;;;;;;;30.70;99.90;;;;;;4972525;28;19938;-67
2021/08/05 12:14:55;;;;;;;;;;;30.40;99.90;;;;;;4973120;28;20004;-67
2021/08/05 12:17:40;;;;;;;;;;;30.20;99.90;;;;;;4972456;28;19911;-66
2021/08/05 12:20:08;;;;;;;;;;;29.60;99.90;;;;;;4955684;28;20359;-66
2021/08/05 12:22:42;;;;;;;;;;;29.60;99.90;;;;;;4973112;28;19914;-67
2021/08/05 12:25:20;;;;;;;;;;;29.80;99.90;;;;;;4973136;28;19972;-67
2021/08/05 12:27:51;;;;;;;;;;;30.20;99.90;;;;;;4972187;28;19914;-67
2021/08/05 12:30:17;;;;;;;;;;;30.30;99.90;;;;;;4973078;28;19917;-66
2021/08/05 12:33:09;;;;;;;;;;;29.90;99.90;;;;;;4972597;28;19918;-66
2021/08/05 12:35:36;;;;;;;;;;;29.40;99.90;;;;;;4968345;28;20137;-66
2021/08/05 12:38:04;;;;;;;;;;;28.90;99.90;;;;;;4971876;28;19910;-66
2021/08/05 12:40:29;;;;;;;;;;;28.60;99.90;;;;;;4972757;28;19914;-66
2021/08/05 12:42:56;;;;;;;;;;;28.30;99.90;;;;;;4971452;28;20319;-66
2021/08/05 12:45:21;;;;;;;;;;;27.80;99.90;;;;;;4972831;28;19910;-66
2021/08/05 12:47:47;;;;;;;;;;;27.60;99.90;;;;;;4971920;28;19910;-66
2021/08/05 12:50:13;;;;;;;;;;;27.40;99.90;;;;;;4972873;28;19917;-66
2021/08/05 12:52:39;;;;;;;;;;;27.10;99.90;;;;;;4972394;28;19914;-66
2021/08/05 12:55:05;;;;;;;;;;;26.80;99.90;;;;;;4972760;28;20375;-66
2021/08/05 12:57:34;;;;;;;;;;;26.60;99.90;;;;;;4971859;28;19917;-66
2021/08/05 12:59:59;;;;;;;;;;;26.40;99.90;;;;;;4972266;28;19910;-67
2021/08/05 13:02:25;;;;;;;;;;;26.30;99.90;;;;;;4972251;28;19910;-66
2021/08/05 13:05:05;;;;;;;;;;;25.80;99.90;;;;;;4972912;28;19917;-66
2021/08/05 13:07:38;;;;;;;;;;;25.90;99.90;;;;;;4971848;28;19953;-66
2021/08/05 13:10:04;;;;;;;;;;;26.00;99.90;;;;;;4972183;28;19916;-66
2021/08/05 13:12:33;;;;;;;;;;;25.60;99.90;;;;;;4971752;28;19910;-66
2021/08/05 13:15:03;;;;;;;;;;;25.70;99.90;;;;;;4972763;28;19917;-67
2021/08/05 13:17:36;;;;;;;;;;;25.70;99.90;;;;;;4971493;28;19914;-67
2021/08/05 13:20:09;;;;;;;;;;;25.80;99.90;;;;;;4972263;28;20394;-66
2021/08/05 13:22:50;;;;;;;;;;;25.90;99.90;;;;;;4971907;28;19914;-66
2021/08/05 13:25:20;;;;;;;;;;;25.60;99.90;;;;;;4972137;28;20406;-66
2021/08/05 13:28:04;;;;;;;;;;;25.60;99.90;;;;;;4971159;28;19910;-66
2021/08/05 13:30:29;;;;;;;;;;;25.60;99.90;;;;;;4954374;28;19949;-66
2021/08/05 13:32:55;;;;;;;;;;;25.60;99.90;;;;;;4971679;28;19972;-66
2021/08/05 13:35:21;;;;;;;;;;;25.60;99.90;;;;;;4972257;28;19911;-65
2021/08/05 13:38:02;;;;;;;;;;;25.70;99.90;;;;;;4971507;28;19910;-66
2021/08/05 13:40:28;;;;;;;;;;;25.90;99.90;;;;;;4971449;28;20362;-66
2021/08/05 13:42:54;;;;;;;;;;;26.00;99.90;;;;;;4971257;28;19913;-66
2021/08/05 13:45:19;;;;;;;;;;;26.10;99.90;;;;;;4971901;28;19910;-66
2021/08/05 13:47:46;;;;;;;;;;;26.10;99.90;;;;;;4971013;28;19910;-66
2021/08/05 13:50:18;;;;;;;;;;;26.10;99.90;;;;;;4971797;28;19917;-66
2021/08/05 13:52:44;;;;;;;;;;;26.20;99.90;;;;;;4970953;28;20386;-66
2021/08/05 13:55:10;;;;;;;;;;;26.30;99.90;;;;;;4975321;28;20300;-66
2021/08/05 13:57:36;;;;;;;;;;;26.20;99.90;;;;;;4974708;28;19960;-66
2021/08/05 14:00:02;;;;;;;;;;;25.80;99.90;;;;;;4975720;28;19925;-66
2021/08/05 14:02:27;;;;;;;;;;;25.30;99.90;;;;;;4975250;28;20236;-66
2021/08/05 14:04:53;;;;;;;;;;;25.30;99.90;;;;;;4975235;28;19922;-66
2021/08/05 14:07:18;;;;;;;;;;;25.20;99.90;;;;;;4974736;28;19940;-66
2021/08/05 14:09:44;;;;;;;;;;;25.10;99.90;;;;;;4975176;28;19934;-66
2021/08/05 14:12:10;;;;;;;;;;;25.10;99.90;;;;;;4974549;28;19910;-65
2021/08/05 14:14:37;;;;;;;;;;;24.90;99.90;;;;;;4974941;28;20001;-65
2021/08/05 14:17:03;;;;;;;;;;;24.90;99.90;;;;;;4975266;28;19917;-65
2021/08/05 14:19:28;;;;;;;;;;;24.70;99.90;;;;;;4974769;28;20381;-65
2021/08/05 14:21:54;;;;;;;;;;;24.70;99.90;;;;;;4974984;28;19910;-65
2021/08/05 14:24:20;;;;;;;;;;;24.60;99.90;;;;;;4975213;28;19926;-65
2021/08/05 14:26:46;;;;;;;;;;;24.60;99.90;;;;;;4974453;28;19942;-65